sensor_id;sensor_type;location;lat;lon;timestamp;P1;durP1;ratioP1;P2;durP2;ratioP2
56267;SDS011;42175;46.930;9.532;2023-04-08T00:01:05;3.63;;;2.00;;
56267;SDS011;42175;46.930;9.532;2023-04-08T00:03:31;5.53;;;1.63;;
56267;SDS011;42175;46.930;9.532;2023-04-08T00:05:57;8.70;;;1.50;;
56267;SDS011;42175;46.930;9.532;2023-04-08T00:08:24;3.28;;;1.85;;
56267;SDS011;42175;46.930;9.532;2023-04-08T00:10:50;2.50;;;1.45;;
56267;SDS011;42175;46.930;9.532;2023-04-08T00:13:16;3.00;;;1.88;;
56267;SDS011;42175;46.930;9.532;2023-04-08T00:15:42;2.40;;;1.45;;
56267;SDS011;42175;46.930;9.532;2023-04-08T00:18:07;2.53;;;1.60;;
56267;SDS011;42175;46.930;9.532;2023-04-08T00:20:33;3.25;;;1.63;;
56267;SDS011;42175;46.930;9.532;2023-04-08T00:22:59;2.50;;;1.50;;
56267;SDS011;42175;46.930;9.532;2023-04-08T00:25:25;2.03;;;1.40;;
56267;SDS011;42175;46.930;9.532;2023-04-08T00:27:50;4.03;;;1.95;;
56267;SDS011;42175;46.930;9.532;2023-04-08T00:30:16;1.85;;;1.30;;
56267;SDS011;42175;46.930;9.532;2023-04-08T00:32:42;4.78;;;1.60;;
56267;SDS011;42175;46.930;9.532;2023-04-08T00:35:08;2.53;;;1.63;;
56267;SDS011;42175;46.930;9.532;2023-04-08T00:37:34;2.53;;;1.60;;
56267;SDS011;42175;46.930;9.532;2023-04-08T00:40:00;2.70;;;1.63;;
56267;SDS011;42175;46.930;9.532;2023-04-08T00:42:25;2.15;;;1.65;;
56267;SDS011;42175;46.930;9.532;2023-04-08T00:44:51;5.15;;;1.70;;
56267;SDS011;42175;46.930;9.532;2023-04-08T00:47:17;2.50;;;1.38;;
56267;SDS011;42175;46.930;9.532;2023-04-08T00:49:43;2.80;;;1.92;;
56267;SDS011;42175;46.930;9.532;2023-04-08T00:52:09;3.38;;;1.60;;
56267;SDS011;42175;46.930;9.532;2023-04-08T00:54:35;2.67;;;1.40;;
56267;SDS011;42175;46.930;9.532;2023-04-08T00:57:02;3.35;;;1.60;;
56267;SDS011;42175;46.930;9.532;2023-04-08T00:59:29;2.17;;;1.40;;
56267;SDS011;42175;46.930;9.532;2023-04-08T01:01:57;2.78;;;1.67;;
56267;SDS011;42175;46.930;9.532;2023-04-08T01:04:43;1.77;;;1.17;;
56267;SDS011;42175;46.930;9.532;2023-04-08T01:07:14;4.18;;;1.48;;
56267;SDS011;42175;46.930;9.532;2023-04-08T01:09:45;4.50;;;1.67;;
56267;SDS011;42175;46.930;9.532;2023-04-08T01:12:24;2.42;;;1.35;;
56267;SDS011;42175;46.930;9.532;2023-04-08T01:15:02;2.40;;;1.50;;
56267;SDS011;42175;46.930;9.532;2023-04-08T01:17:30;2.47;;;1.65;;
56267;SDS011;42175;46.930;9.532;2023-04-08T01:19:58;3.45;;;1.67;;
56267;SDS011;42175;46.930;9.532;2023-04-08T01:22:33;2.55;;;1.52;;
56267;SDS011;42175;46.930;9.532;2023-04-08T01:25:09;2.88;;;1.35;;
56267;SDS011;42175;46.930;9.532;2023-04-08T01:27:40;3.08;;;1.55;;
56267;SDS011;42175;46.930;9.532;2023-04-08T01:30:07;2.83;;;1.42;;
56267;SDS011;42175;46.930;9.532;2023-04-08T01:32:35;2.80;;;1.50;;
56267;SDS011;42175;46.930;9.532;2023-04-08T01:35:01;1.98;;;1.35;;
56267;SDS011;42175;46.930;9.532;2023-04-08T01:37:28;2.47;;;1.30;;
56267;SDS011;42175;46.930;9.532;2023-04-08T01:39:55;3.08;;;1.48;;
56267;SDS011;42175;46.930;9.532;2023-04-08T01:42:23;2.30;;;1.50;;
56267;SDS011;42175;46.930;9.532;2023-04-08T01:44:54;3.42;;;1.73;;
56267;SDS011;42175;46.930;9.532;2023-04-08T01:47:22;2.65;;;1.27;;
56267;SDS011;42175;46.930;9.532;2023-04-08T01:49:50;2.45;;;1.50;;
56267;SDS011;42175;46.930;9.532;2023-04-08T01:52:17;2.72;;;1.45;;
56267;SDS011;42175;46.930;9.532;2023-04-08T01:54:45;4.68;;;1.75;;
56267;SDS011;42175;46.930;9.532;2023-04-08T01:57:13;2.70;;;1.38;;
56267;SDS011;42175;46.930;9.532;2023-04-08T01:59:43;1.85;;;1.27;;
56267;SDS011;42175;46.930;9.532;2023-04-08T02:02:15;2.30;;;1.50;;
56267;SDS011;42175;46.930;9.532;2023-04-08T02:04:44;2.85;;;1.42;;
56267;SDS011;42175;46.930;9.532;2023-04-08T02:07:10;2.45;;;1.48;;
56267;SDS011;42175;46.930;9.532;2023-04-08T02:09:36;1.92;;;1.42;;
56267;SDS011;42175;46.930;9.532;2023-04-08T02:12:02;2.17;;;1.45;;
56267;SDS011;42175;46.930;9.532;2023-04-08T02:14:28;3.15;;;2.10;;
56267;SDS011;42175;46.930;9.532;2023-04-08T02:22:41;1.95;;;1.35;;
56267;SDS011;42175;46.930;9.532;2023-04-08T02:25:27;3.25;;;1.20;;
56267;SDS011;42175;46.930;9.532;2023-04-08T02:27:54;3.65;;;1.23;;
56267;SDS011;42175;46.930;9.532;2023-04-08T02:30:21;4.70;;;1.48;;
56267;SDS011;42175;46.930;9.532;2023-04-08T02:32:49;2.50;;;1.30;;
56267;SDS011;42175;46.930;9.532;2023-04-08T02:35:17;1.63;;;1.13;;
56267;SDS011;42175;46.930;9.532;2023-04-08T02:37:45;1.58;;;1.13;;
56267;SDS011;42175;46.930;9.532;2023-04-08T02:40:26;2.55;;;1.52;;
56267;SDS011;42175;46.930;9.532;2023-04-08T02:42:53;2.15;;;1.30;;
56267;SDS011;42175;46.930;9.532;2023-04-08T02:45:20;1.60;;;1.20;;
56267;SDS011;42175;46.930;9.532;2023-04-08T02:47:46;2.03;;;1.45;;
56267;SDS011;42175;46.930;9.532;2023-04-08T02:50:12;2.15;;;1.30;;
56267;SDS011;42175;46.930;9.532;2023-04-08T02:52:38;3.88;;;1.55;;
56267;SDS011;42175;46.930;9.532;2023-04-08T02:55:04;2.85;;;1.30;;
56267;SDS011;42175;46.930;9.532;2023-04-08T02:57:33;1.90;;;1.48;;
56267;SDS011;42175;46.930;9.532;2023-04-08T03:00:01;2.05;;;1.20;;
56267;SDS011;42175;46.930;9.532;2023-04-08T03:02:28;2.25;;;1.27;;
56267;SDS011;42175;46.930;9.532;2023-04-08T03:04:53;1.70;;;1.15;;
56267;SDS011;42175;46.930;9.532;2023-04-08T03:07:19;2.22;;;1.25;;
56267;SDS011;42175;46.930;9.532;2023-04-08T03:09:45;1.73;;;1.33;;
56267;SDS011;42175;46.930;9.532;2023-04-08T03:12:11;2.17;;;1.30;;
56267;SDS011;42175;46.930;9.532;2023-04-08T03:14:36;3.22;;;1.83;;
56267;SDS011;42175;46.930;9.532;2023-04-08T03:17:02;1.98;;;1.20;;
56267;SDS011;42175;46.930;9.532;2023-04-08T03:19:28;1.58;;;1.25;;
56267;SDS011;42175;46.930;9.532;2023-04-08T03:21:53;2.00;;;1.30;;
56267;SDS011;42175;46.930;9.532;2023-04-08T03:24:19;1.80;;;1.25;;
56267;SDS011;42175;46.930;9.532;2023-04-08T03:26:44;1.70;;;1.20;;
56267;SDS011;42175;46.930;9.532;2023-04-08T03:29:10;1.95;;;1.25;;
56267;SDS011;42175;46.930;9.532;2023-04-08T03:31:36;3.40;;;1.17;;
56267;SDS011;42175;46.930;9.532;2023-04-08T03:34:01;1.70;;;1.20;;
56267;SDS011;42175;46.930;9.532;2023-04-08T03:36:27;3.00;;;1.50;;
56267;SDS011;42175;46.930;9.532;2023-04-08T03:38:53;1.38;;;1.05;;
56267;SDS011;42175;46.930;9.532;2023-04-08T03:41:19;2.00;;;1.38;;
56267;SDS011;42175;46.930;9.532;2023-04-08T03:43:45;1.80;;;1.38;;
56267;SDS011;42175;46.930;9.532;2023-04-08T03:46:10;1.85;;;1.23;;
56267;SDS011;42175;46.930;9.532;2023-04-08T03:48:36;2.20;;;1.40;;
56267;SDS011;42175;46.930;9.532;2023-04-08T03:51:02;2.08;;;1.42;;
56267;SDS011;42175;46.930;9.532;2023-04-08T03:53:27;3.30;;;1.50;;
56267;SDS011;42175;46.930;9.532;2023-04-08T03:55:54;2.40;;;1.30;;
56267;SDS011;42175;46.930;9.532;2023-04-08T03:58:21;1.40;;;1.23;;
56267;SDS011;42175;46.930;9.532;2023-04-08T04:00:46;2.28;;;1.50;;
56267;SDS011;42175;46.930;9.532;2023-04-08T04:03:12;2.00;;;1.40;;
56267;SDS011;42175;46.930;9.532;2023-04-08T04:05:39;2.60;;;1.40;;
56267;SDS011;42175;46.930;9.532;2023-04-08T04:08:05;2.92;;;1.40;;
56267;SDS011;42175;46.930;9.532;2023-04-08T04:10:30;2.05;;;1.13;;
56267;SDS011;42175;46.930;9.532;2023-04-08T04:12:56;1.80;;;1.30;;
56267;SDS011;42175;46.930;9.532;2023-04-08T04:15:22;3.00;;;1.55;;
56267;SDS011;42175;46.930;9.532;2023-04-08T04:17:48;1.90;;;1.33;;
56267;SDS011;42175;46.930;9.532;2023-04-08T04:20:17;2.35;;;1.58;;
56267;SDS011;42175;46.930;9.532;2023-04-08T04:22:43;1.73;;;1.30;;
56267;SDS011;42175;46.930;9.532;2023-04-08T04:25:09;1.70;;;1.33;;
56267;SDS011;42175;46.930;9.532;2023-04-08T04:27:35;2.78;;;1.30;;
56267;SDS011;42175;46.930;9.532;2023-04-08T04:30:01;1.77;;;1.38;;
56267;SDS011;42175;46.930;9.532;2023-04-08T04:32:28;2.22;;;1.42;;
56267;SDS011;42175;46.930;9.532;2023-04-08T04:34:54;1.65;;;1.30;;
56267;SDS011;42175;46.930;9.532;2023-04-08T04:37:20;2.80;;;1.33;;
56267;SDS011;42175;46.930;9.532;2023-04-08T04:39:45;1.58;;;1.13;;
56267;SDS011;42175;46.930;9.532;2023-04-08T04:42:11;2.00;;;1.60;;
56267;SDS011;42175;46.930;9.532;2023-04-08T04:44:37;1.95;;;1.48;;
56267;SDS011;42175;46.930;9.532;2023-04-08T04:47:03;2.05;;;1.30;;
56267;SDS011;42175;46.930;9.532;2023-04-08T04:49:28;2.15;;;1.38;;
56267;SDS011;42175;46.930;9.532;2023-04-08T04:51:54;1.85;;;1.20;;
56267;SDS011;42175;46.930;9.532;2023-04-08T04:54:20;2.47;;;1.50;;
56267;SDS011;42175;46.930;9.532;2023-04-08T04:56:45;2.30;;;1.50;;
56267;SDS011;42175;46.930;9.532;2023-04-08T04:59:11;2.00;;;1.40;;
56267;SDS011;42175;46.930;9.532;2023-04-08T05:01:37;2.28;;;1.55;;
56267;SDS011;42175;46.930;9.532;2023-04-08T05:04:05;1.90;;;1.20;;
56267;SDS011;42175;46.930;9.532;2023-04-08T05:06:31;2.53;;;1.67;;
56267;SDS011;42175;46.930;9.532;2023-04-08T05:08:57;1.92;;;1.40;;
56267;SDS011;42175;46.930;9.532;2023-04-08T05:11:23;1.60;;;1.35;;
56267;SDS011;42175;46.930;9.532;2023-04-08T05:13:49;1.60;;;1.30;;
56267;SDS011;42175;46.930;9.532;2023-04-08T05:16:15;1.90;;;1.20;;
56267;SDS011;42175;46.930;9.532;2023-04-08T05:18:41;1.63;;;1.33;;
56267;SDS011;42175;46.930;9.532;2023-04-08T05:21:06;2.15;;;1.30;;
56267;SDS011;42175;46.930;9.532;2023-04-08T05:23:33;2.60;;;1.45;;
56267;SDS011;42175;46.930;9.532;2023-04-08T05:26:00;3.70;;;1.40;;
56267;SDS011;42175;46.930;9.532;2023-04-08T05:28:25;3.88;;;1.30;;
56267;SDS011;42175;46.930;9.532;2023-04-08T05:30:51;3.72;;;1.33;;
56267;SDS011;42175;46.930;9.532;2023-04-08T05:33:18;1.90;;;1.48;;
56267;SDS011;42175;46.930;9.532;2023-04-08T05:35:44;1.58;;;1.10;;
56267;SDS011;42175;46.930;9.532;2023-04-08T05:38:10;3.42;;;1.27;;
56267;SDS011;42175;46.930;9.532;2023-04-08T05:40:36;2.03;;;1.40;;
56267;SDS011;42175;46.930;9.532;2023-04-08T05:43:02;3.33;;;1.70;;
56267;SDS011;42175;46.930;9.532;2023-04-08T05:45:28;1.77;;;1.30;;
56267;SDS011;42175;46.930;9.532;2023-04-08T05:47:54;2.22;;;1.52;;
56267;SDS011;42175;46.930;9.532;2023-04-08T05:50:20;2.25;;;1.45;;
56267;SDS011;42175;46.930;9.532;2023-04-08T05:52:46;2.83;;;1.42;;
56267;SDS011;42175;46.930;9.532;2023-04-08T05:55:12;3.03;;;1.48;;
56267;SDS011;42175;46.930;9.532;2023-04-08T05:57:38;4.13;;;1.50;;
56267;SDS011;42175;46.930;9.532;2023-04-08T06:00:06;2.00;;;1.60;;
56267;SDS011;42175;46.930;9.532;2023-04-08T06:02:33;1.77;;;1.33;;
56267;SDS011;42175;46.930;9.532;2023-04-08T06:05:00;2.20;;;1.42;;
56267;SDS011;42175;46.930;9.532;2023-04-08T06:07:27;2.92;;;1.42;;
56267;SDS011;42175;46.930;9.532;2023-04-08T06:09:53;2.22;;;1.13;;
56267;SDS011;42175;46.930;9.532;2023-04-08T06:12:19;4.15;;;1.67;;
56267;SDS011;42175;46.930;9.532;2023-04-08T06:14:45;3.15;;;1.58;;
56267;SDS011;42175;46.930;9.532;2023-04-08T06:17:11;2.28;;;1.50;;
56267;SDS011;42175;46.930;9.532;2023-04-08T06:19:37;3.25;;;1.55;;
56267;SDS011;42175;46.930;9.532;2023-04-08T06:22:02;3.22;;;1.40;;
56267;SDS011;42175;46.930;9.532;2023-04-08T06:24:28;2.85;;;1.20;;
56267;SDS011;42175;46.930;9.532;2023-04-08T06:26:54;1.38;;;1.08;;
56267;SDS011;42175;46.930;9.532;2023-04-08T06:29:22;1.90;;;1.38;;
56267;SDS011;42175;46.930;9.532;2023-04-08T06:31:48;1.92;;;1.38;;
56267;SDS011;42175;46.930;9.532;2023-04-08T06:34:14;2.42;;;1.30;;
56267;SDS011;42175;46.930;9.532;2023-04-08T06:36:40;21.25;;;2.45;;
56267;SDS011;42175;46.930;9.532;2023-04-08T06:39:06;3.25;;;1.63;;
56267;SDS011;42175;46.930;9.532;2023-04-08T06:41:32;2.92;;;1.80;;
56267;SDS011;42175;46.930;9.532;2023-04-08T06:43:58;2.45;;;1.60;;
56267;SDS011;42175;46.930;9.532;2023-04-08T06:46:23;2.58;;;1.50;;
56267;SDS011;42175;46.930;9.532;2023-04-08T06:48:49;2.25;;;1.48;;
56267;SDS011;42175;46.930;9.532;2023-04-08T06:51:15;1.80;;;1.23;;
56267;SDS011;42175;46.930;9.532;2023-04-08T06:53:41;7.90;;;1.60;;
56267;SDS011;42175;46.930;9.532;2023-04-08T06:56:07;3.40;;;1.70;;
56267;SDS011;42175;46.930;9.532;2023-04-08T06:58:33;4.13;;;1.58;;
56267;SDS011;42175;46.930;9.532;2023-04-08T07:00:59;4.95;;;1.50;;
56267;SDS011;42175;46.930;9.532;2023-04-08T07:03:25;3.60;;;1.45;;
56267;SDS011;42175;46.930;9.532;2023-04-08T07:05:51;3.55;;;1.58;;
56267;SDS011;42175;46.930;9.532;2023-04-08T07:08:17;7.30;;;2.13;;
56267;SDS011;42175;46.930;9.532;2023-04-08T07:10:43;5.78;;;1.88;;
56267;SDS011;42175;46.930;9.532;2023-04-08T07:13:09;3.10;;;1.40;;
56267;SDS011;42175;46.930;9.532;2023-04-08T07:15:35;2.10;;;1.60;;
56267;SDS011;42175;46.930;9.532;2023-04-08T07:18:01;3.83;;;1.45;;
56267;SDS011;42175;46.930;9.532;2023-04-08T07:20:28;4.53;;;1.67;;
56267;SDS011;42175;46.930;9.532;2023-04-08T07:22:54;2.50;;;1.70;;
56267;SDS011;42175;46.930;9.532;2023-04-08T07:25:20;2.63;;;1.67;;
56267;SDS011;42175;46.930;9.532;2023-04-08T07:27:46;4.05;;;1.90;;
56267;SDS011;42175;46.930;9.532;2023-04-08T07:30:11;2.60;;;1.70;;
56267;SDS011;42175;46.930;9.532;2023-04-08T07:32:37;2.92;;;2.08;;
56267;SDS011;42175;46.930;9.532;2023-04-08T07:35:03;2.40;;;1.58;;
56267;SDS011;42175;46.930;9.532;2023-04-08T07:37:29;3.33;;;1.75;;
56267;SDS011;42175;46.930;9.532;2023-04-08T07:39:55;2.67;;;1.52;;
56267;SDS011;42175;46.930;9.532;2023-04-08T07:42:20;3.03;;;1.60;;
56267;SDS011;42175;46.930;9.532;2023-04-08T07:44:46;1.88;;;1.40;;
56267;SDS011;42175;46.930;9.532;2023-04-08T07:47:12;12.85;;;1.88;;
56267;SDS011;42175;46.930;9.532;2023-04-08T07:49:38;10.13;;;1.77;;
56267;SDS011;42175;46.930;9.532;2023-04-08T07:52:04;7.90;;;1.67;;
56267;SDS011;42175;46.930;9.532;2023-04-08T07:54:30;9.40;;;1.77;;
56267;SDS011;42175;46.930;9.532;2023-04-08T07:57:00;2.83;;;1.35;;
56267;SDS011;42175;46.930;9.532;2023-04-08T07:59:27;5.72;;;1.73;;
56267;SDS011;42175;46.930;9.532;2023-04-08T08:01:53;6.20;;;1.52;;
56267;SDS011;42175;46.930;9.532;2023-04-08T08:04:19;5.18;;;1.60;;
56267;SDS011;42175;46.930;9.532;2023-04-08T08:06:45;6.70;;;1.60;;
56267;SDS011;42175;46.930;9.532;2023-04-08T08:09:11;2.08;;;1.40;;
56267;SDS011;42175;46.930;9.532;2023-04-08T08:11:37;2.58;;;1.42;;
56267;SDS011;42175;46.930;9.532;2023-04-08T08:14:03;3.80;;;1.27;;
56267;SDS011;42175;46.930;9.532;2023-04-08T08:16:29;5.90;;;1.55;;
56267;SDS011;42175;46.930;9.532;2023-04-08T08:18:56;5.30;;;2.15;;
56267;SDS011;42175;46.930;9.532;2023-04-08T08:21:22;8.93;;;2.53;;
56267;SDS011;42175;46.930;9.532;2023-04-08T08:23:48;7.38;;;2.55;;
56267;SDS011;42175;46.930;9.532;2023-04-08T08:26:16;17.33;;;4.68;;
56267;SDS011;42175;46.930;9.532;2023-04-08T08:28:41;20.08;;;7.15;;
56267;SDS011;42175;46.930;9.532;2023-04-08T08:31:07;27.08;;;9.35;;
56267;SDS011;42175;46.930;9.532;2023-04-08T08:33:33;24.73;;;8.52;;
56267;SDS011;42175;46.930;9.532;2023-04-08T08:35:59;29.58;;;9.10;;
56267;SDS011;42175;46.930;9.532;2023-04-08T08:38:25;27.45;;;9.45;;
56267;SDS011;42175;46.930;9.532;2023-04-08T08:40:54;28.70;;;10.10;;
56267;SDS011;42175;46.930;9.532;2023-04-08T08:43:24;27.65;;;10.40;;
56267;SDS011;42175;46.930;9.532;2023-04-08T08:45:52;26.23;;;9.45;;
56267;SDS011;42175;46.930;9.532;2023-04-08T08:48:18;30.67;;;10.75;;
56267;SDS011;42175;46.930;9.532;2023-04-08T08:50:44;32.65;;;10.50;;
56267;SDS011;42175;46.930;9.532;2023-04-08T08:53:10;27.90;;;9.80;;
56267;SDS011;42175;46.930;9.532;2023-04-08T08:55:36;24.40;;;9.77;;
56267;SDS011;42175;46.930;9.532;2023-04-08T08:58:04;28.52;;;8.35;;
56267;SDS011;42175;46.930;9.532;2023-04-08T09:00:35;23.20;;;8.82;;
56267;SDS011;42175;46.930;9.532;2023-04-08T09:03:19;19.90;;;8.80;;
56267;SDS011;42175;46.930;9.532;2023-04-08T09:10:54;20.45;;;8.75;;
56267;SDS011;42175;46.930;9.532;2023-04-08T09:13:34;19.25;;;8.48;;
56267;SDS011;42175;46.930;9.532;2023-04-08T09:16:02;20.77;;;8.57;;
56267;SDS011;42175;46.930;9.532;2023-04-08T09:18:29;15.35;;;7.00;;
56267;SDS011;42175;46.930;9.532;2023-04-08T09:21:00;21.75;;;7.22;;
56267;SDS011;42175;46.930;9.532;2023-04-08T09:26:10;17.15;;;8.02;;
56267;SDS011;42175;46.930;9.532;2023-04-08T09:28:44;16.80;;;7.43;;
56267;SDS011;42175;46.930;9.532;2023-04-08T09:31:35;18.63;;;6.78;;
56267;SDS011;42175;46.930;9.532;2023-04-08T09:34:08;12.55;;;6.18;;
56267;SDS011;42175;46.930;9.532;2023-04-08T09:36:36;14.25;;;5.40;;
56267;SDS011;42175;46.930;9.532;2023-04-08T09:39:01;13.07;;;5.00;;
56267;SDS011;42175;46.930;9.532;2023-04-08T09:41:27;14.23;;;4.55;;
56267;SDS011;42175;46.930;9.532;2023-04-08T09:43:57;10.38;;;4.00;;
56267;SDS011;42175;46.930;9.532;2023-04-08T09:49:12;22.73;;;5.47;;
56267;SDS011;42175;46.930;9.532;2023-04-08T09:52:01;11.88;;;4.38;;
56267;SDS011;42175;46.930;9.532;2023-04-08T09:54:37;9.25;;;3.10;;
56267;SDS011;42175;46.930;9.532;2023-04-08T09:57:13;17.50;;;3.50;;
56267;SDS011;42175;46.930;9.532;2023-04-08T09:59:48;10.70;;;3.95;;
56267;SDS011;42175;46.930;9.532;2023-04-08T10:02:24;12.50;;;2.80;;
56267;SDS011;42175;46.930;9.532;2023-04-08T10:04:57;6.40;;;2.80;;
56267;SDS011;42175;46.930;9.532;2023-04-08T10:07:27;5.03;;;2.45;;
56267;SDS011;42175;46.930;9.532;2023-04-08T10:09:54;8.10;;;2.75;;
56267;SDS011;42175;46.930;9.532;2023-04-08T10:12:21;5.28;;;2.50;;
56267;SDS011;42175;46.930;9.532;2023-04-08T10:17:52;5.05;;;2.30;;
56267;SDS011;42175;46.930;9.532;2023-04-08T10:23:03;7.47;;;2.25;;
56267;SDS011;42175;46.930;9.532;2023-04-08T10:25:32;6.43;;;2.58;;
56267;SDS011;42175;46.930;9.532;2023-04-08T10:30:43;4.78;;;2.20;;
56267;SDS011;42175;46.930;9.532;2023-04-08T10:33:15;4.38;;;1.85;;
56267;SDS011;42175;46.930;9.532;2023-04-08T10:35:46;5.35;;;2.10;;
56267;SDS011;42175;46.930;9.532;2023-04-08T10:38:13;2.95;;;1.98;;
56267;SDS011;42175;46.930;9.532;2023-04-08T10:40:40;4.15;;;2.33;;
56267;SDS011;42175;46.930;9.532;2023-04-08T10:43:07;2.30;;;1.60;;
56267;SDS011;42175;46.930;9.532;2023-04-08T10:45:36;4.78;;;2.15;;
56267;SDS011;42175;46.930;9.532;2023-04-08T10:48:12;2.85;;;2.10;;
56267;SDS011;42175;46.930;9.532;2023-04-08T10:50:42;3.65;;;1.95;;
56267;SDS011;42175;46.930;9.532;2023-04-08T10:53:09;3.33;;;2.03;;
56267;SDS011;42175;46.930;9.532;2023-04-08T10:55:35;3.67;;;2.08;;
56267;SDS011;42175;46.930;9.532;2023-04-08T10:58:04;3.63;;;1.98;;
56267;SDS011;42175;46.930;9.532;2023-04-08T11:00:32;2.97;;;1.85;;
56267;SDS011;42175;46.930;9.532;2023-04-08T11:03:04;3.22;;;2.10;;
56267;SDS011;42175;46.930;9.532;2023-04-08T11:05:35;2.42;;;1.80;;
56267;SDS011;42175;46.930;9.532;2023-04-08T11:08:03;3.42;;;1.92;;
56267;SDS011;42175;46.930;9.532;2023-04-08T11:10:30;2.38;;;1.88;;
56267;SDS011;42175;46.930;9.532;2023-04-08T11:13:00;2.60;;;1.70;;
56267;SDS011;42175;46.930;9.532;2023-04-08T11:15:28;2.92;;;2.08;;
56267;SDS011;42175;46.930;9.532;2023-04-08T11:17:55;2.90;;;1.90;;
56267;SDS011;42175;46.930;9.532;2023-04-08T11:20:20;3.63;;;2.30;;
56267;SDS011;42175;46.930;9.532;2023-04-08T11:22:47;4.18;;;2.05;;
56267;SDS011;42175;46.930;9.532;2023-04-08T11:25:14;2.83;;;2.08;;
56267;SDS011;42175;46.930;9.532;2023-04-08T11:27:40;3.67;;;2.05;;
56267;SDS011;42175;46.930;9.532;2023-04-08T11:30:06;2.60;;;2.35;;
56267;SDS011;42175;46.930;9.532;2023-04-08T11:32:33;3.30;;;2.50;;
56267;SDS011;42175;46.930;9.532;2023-04-08T11:35:00;5.60;;;2.50;;
56267;SDS011;42175;46.930;9.532;2023-04-08T11:37:38;3.42;;;2.58;;
56267;SDS011;42175;46.930;9.532;2023-04-08T11:40:11;2.90;;;2.00;;
56267;SDS011;42175;46.930;9.532;2023-04-08T11:42:37;2.75;;;2.20;;
56267;SDS011;42175;46.930;9.532;2023-04-08T11:45:13;2.20;;;1.90;;
56267;SDS011;42175;46.930;9.532;2023-04-08T11:47:43;3.47;;;2.05;;
56267;SDS011;42175;46.930;9.532;2023-04-08T11:50:11;5.05;;;2.92;;
56267;SDS011;42175;46.930;9.532;2023-04-08T11:55:10;2.40;;;2.00;;
56267;SDS011;42175;46.930;9.532;2023-04-08T11:57:36;2.53;;;1.70;;
56267;SDS011;42175;46.930;9.532;2023-04-08T12:00:05;4.88;;;1.70;;
56267;SDS011;42175;46.930;9.532;2023-04-08T12:02:32;3.33;;;1.80;;
56267;SDS011;42175;46.930;9.532;2023-04-08T12:04:57;3.92;;;1.75;;
56267;SDS011;42175;46.930;9.532;2023-04-08T12:07:23;1.70;;;1.23;;
56267;SDS011;42175;46.930;9.532;2023-04-08T12:09:49;2.70;;;1.52;;
56267;SDS011;42175;46.930;9.532;2023-04-08T12:12:15;5.00;;;1.58;;
56267;SDS011;42175;46.930;9.532;2023-04-08T12:14:40;4.35;;;1.85;;
56267;SDS011;42175;46.930;9.532;2023-04-08T12:17:06;4.25;;;1.20;;
56267;SDS011;42175;46.930;9.532;2023-04-08T12:19:31;1.80;;;1.10;;
56267;SDS011;42175;46.930;9.532;2023-04-08T12:21:57;1.63;;;1.02;;
56267;SDS011;42175;46.930;9.532;2023-04-08T12:24:23;1.63;;;0.93;;
56267;SDS011;42175;46.930;9.532;2023-04-08T12:26:48;3.00;;;1.17;;
56267;SDS011;42175;46.930;9.532;2023-04-08T12:29:14;1.85;;;1.33;;
56267;SDS011;42175;46.930;9.532;2023-04-08T12:31:40;3.65;;;1.33;;
56267;SDS011;42175;46.930;9.532;2023-04-08T12:34:05;4.57;;;2.10;;
56267;SDS011;42175;46.930;9.532;2023-04-08T12:36:31;2.20;;;1.73;;
56267;SDS011;42175;46.930;9.532;2023-04-08T12:38:57;4.20;;;1.60;;
56267;SDS011;42175;46.930;9.532;2023-04-08T12:41:23;2.30;;;1.50;;
56267;SDS011;42175;46.930;9.532;2023-04-08T12:43:48;2.85;;;1.63;;
56267;SDS011;42175;46.930;9.532;2023-04-08T12:46:14;2.70;;;1.92;;
56267;SDS011;42175;46.930;9.532;2023-04-08T12:48:40;3.10;;;1.90;;
56267;SDS011;42175;46.930;9.532;2023-04-08T12:51:08;4.05;;;2.00;;
56267;SDS011;42175;46.930;9.532;2023-04-08T12:53:36;2.28;;;1.73;;
56267;SDS011;42175;46.930;9.532;2023-04-08T12:56:01;3.00;;;1.65;;
56267;SDS011;42175;46.930;9.532;2023-04-08T12:58:27;3.95;;;1.67;;
56267;SDS011;42175;46.930;9.532;2023-04-08T13:00:53;4.80;;;1.58;;
56267;SDS011;42175;46.930;9.532;2023-04-08T13:03:18;2.38;;;1.35;;
56267;SDS011;42175;46.930;9.532;2023-04-08T13:05:44;2.88;;;1.80;;
56267;SDS011;42175;46.930;9.532;2023-04-08T13:08:10;1.95;;;1.23;;
56267;SDS011;42175;46.930;9.532;2023-04-08T13:10:36;4.30;;;1.45;;
56267;SDS011;42175;46.930;9.532;2023-04-08T13:13:02;4.72;;;1.60;;
56267;SDS011;42175;46.930;9.532;2023-04-08T13:15:28;2.83;;;1.30;;
56267;SDS011;42175;46.930;9.532;2023-04-08T13:17:53;5.70;;;1.40;;
56267;SDS011;42175;46.930;9.532;2023-04-08T13:20:19;2.95;;;1.20;;
56267;SDS011;42175;46.930;9.532;2023-04-08T13:22:49;2.40;;;1.40;;
56267;SDS011;42175;46.930;9.532;2023-04-08T13:25:16;2.03;;;1.50;;
56267;SDS011;42175;46.930;9.532;2023-04-08T13:27:41;2.55;;;1.30;;
56267;SDS011;42175;46.930;9.532;2023-04-08T13:30:07;2.65;;;1.42;;
56267;SDS011;42175;46.930;9.532;2023-04-08T13:32:33;1.65;;;1.25;;
56267;SDS011;42175;46.930;9.532;2023-04-08T13:34:59;1.90;;;1.05;;
56267;SDS011;42175;46.930;9.532;2023-04-08T13:37:25;1.52;;;1.25;;
56267;SDS011;42175;46.930;9.532;2023-04-08T13:39:51;1.90;;;1.35;;
56267;SDS011;42175;46.930;9.532;2023-04-08T13:42:17;2.70;;;1.33;;
56267;SDS011;42175;46.930;9.532;2023-04-08T13:44:42;1.85;;;1.20;;
56267;SDS011;42175;46.930;9.532;2023-04-08T13:47:08;3.30;;;1.10;;
56267;SDS011;42175;46.930;9.532;2023-04-08T13:49:34;3.42;;;1.10;;
56267;SDS011;42175;46.930;9.532;2023-04-08T13:51:59;2.50;;;1.00;;
56267;SDS011;42175;46.930;9.532;2023-04-08T13:54:25;1.48;;;1.10;;
56267;SDS011;42175;46.930;9.532;2023-04-08T13:56:51;1.75;;;1.10;;
56267;SDS011;42175;46.930;9.532;2023-04-08T13:59:17;2.13;;;1.10;;
56267;SDS011;42175;46.930;9.532;2023-04-08T14:01:42;1.42;;;1.00;;
56267;SDS011;42175;46.930;9.532;2023-04-08T14:04:08;1.88;;;1.00;;
56267;SDS011;42175;46.930;9.532;2023-04-08T14:06:34;1.70;;;1.00;;
56267;SDS011;42175;46.930;9.532;2023-04-08T14:09:00;1.27;;;0.93;;
56267;SDS011;42175;46.930;9.532;2023-04-08T14:11:26;2.25;;;1.30;;
56267;SDS011;42175;46.930;9.532;2023-04-08T14:13:51;1.02;;;0.90;;
56267;SDS011;42175;46.930;9.532;2023-04-08T14:16:17;1.83;;;1.15;;
56267;SDS011;42175;46.930;9.532;2023-04-08T14:18:44;1.65;;;1.00;;
56267;SDS011;42175;46.930;9.532;2023-04-08T14:21:09;1.20;;;0.90;;
56267;SDS011;42175;46.930;9.532;2023-04-08T14:23:38;1.48;;;0.98;;
56267;SDS011;42175;46.930;9.532;2023-04-08T14:26:03;1.92;;;1.00;;
56267;SDS011;42175;46.930;9.532;2023-04-08T14:28:30;1.23;;;1.00;;
56267;SDS011;42175;46.930;9.532;2023-04-08T14:30:55;1.83;;;1.13;;
56267;SDS011;42175;46.930;9.532;2023-04-08T14:33:21;1.60;;;1.00;;
56267;SDS011;42175;46.930;9.532;2023-04-08T14:35:46;2.15;;;1.17;;
56267;SDS011;42175;46.930;9.532;2023-04-08T14:38:12;3.42;;;1.20;;
56267;SDS011;42175;46.930;9.532;2023-04-08T14:40:38;1.20;;;0.90;;
56267;SDS011;42175;46.930;9.532;2023-04-08T14:43:03;1.98;;;1.30;;
56267;SDS011;42175;46.930;9.532;2023-04-08T14:45:29;2.50;;;1.23;;
56267;SDS011;42175;46.930;9.532;2023-04-08T14:47:55;1.30;;;1.00;;
56267;SDS011;42175;46.930;9.532;2023-04-08T14:50:21;2.83;;;1.17;;
56267;SDS011;42175;46.930;9.532;2023-04-08T14:52:47;1.52;;;1.10;;
56267;SDS011;42175;46.930;9.532;2023-04-08T14:55:13;1.30;;;1.08;;
56267;SDS011;42175;46.930;9.532;2023-04-08T14:57:39;3.20;;;1.13;;
56267;SDS011;42175;46.930;9.532;2023-04-08T15:00:05;1.40;;;1.08;;
56267;SDS011;42175;46.930;9.532;2023-04-08T15:02:32;2.15;;;1.45;;
56267;SDS011;42175;46.930;9.532;2023-04-08T15:04:58;2.03;;;1.30;;
56267;SDS011;42175;46.930;9.532;2023-04-08T15:07:23;2.40;;;1.25;;
56267;SDS011;42175;46.930;9.532;2023-04-08T15:09:50;1.88;;;1.15;;
56267;SDS011;42175;46.930;9.532;2023-04-08T15:12:16;1.52;;;1.17;;